sensor_id;sensor_type;location;lat;lon;timestamp;P1;durP1;ratioP1;P2;durP2;ratioP2
26060;SDS011;36331;51.378;0.018;2022-08-03T00:00:55;14.38;;;3.58;;
26060;SDS011;36331;51.378;0.018;2022-08-03T00:03:24;12.73;;;3.78;;
26060;SDS011;36331;51.378;0.018;2022-08-03T00:05:54;8.93;;;3.35;;
26060;SDS011;36331;51.378;0.018;2022-08-03T00:08:30;6.72;;;3.20;;
26060;SDS011;36331;51.378;0.018;2022-08-03T00:11:06;8.95;;;3.67;;
26060;SDS011;36331;51.378;0.018;2022-08-03T00:13:37;6.85;;;3.58;;
26060;SDS011;36331;51.378;0.018;2022-08-03T00:16:06;11.55;;;4.20;;
26060;SDS011;36331;51.378;0.018;2022-08-03T00:18:39;12.52;;;5.10;;
26060;SDS011;36331;51.378;0.018;2022-08-03T00:21:08;12.18;;;3.65;;
26060;SDS011;36331;51.378;0.018;2022-08-03T00:23:38;11.90;;;3.67;;
26060;SDS011;36331;51.378;0.018;2022-08-03T00:26:18;12.63;;;3.25;;
26060;SDS011;36331;51.378;0.018;2022-08-03T00:28:49;10.52;;;3.65;;
26060;SDS011;36331;51.378;0.018;2022-08-03T00:31:19;14.98;;;4.13;;
26060;SDS011;36331;51.378;0.018;2022-08-03T00:34:08;10.15;;;4.28;;
26060;SDS011;36331;51.378;0.018;2022-08-03T00:36:38;11.75;;;4.00;;
26060;SDS011;36331;51.378;0.018;2022-08-03T00:39:08;7.90;;;3.05;;
26060;SDS011;36331;51.378;0.018;2022-08-03T00:41:38;12.25;;;4.13;;
26060;SDS011;36331;51.378;0.018;2022-08-03T00:44:11;8.00;;;3.50;;
26060;SDS011;36331;51.378;0.018;2022-08-03T00:46:41;8.32;;;3.20;;
26060;SDS011;36331;51.378;0.018;2022-08-03T00:49:10;10.65;;;3.22;;
26060;SDS011;36331;51.378;0.018;2022-08-03T00:51:41;10.07;;;3.38;;
26060;SDS011;36331;51.378;0.018;2022-08-03T00:54:11;7.07;;;3.33;;
26060;SDS011;36331;51.378;0.018;2022-08-03T00:56:44;8.05;;;3.08;;
26060;SDS011;36331;51.378;0.018;2022-08-03T00:59:28;10.27;;;3.90;;
26060;SDS011;36331;51.378;0.018;2022-08-03T01:01:57;9.98;;;3.97;;
26060;SDS011;36331;51.378;0.018;2022-08-03T01:04:26;12.73;;;3.95;;
26060;SDS011;36331;51.378;0.018;2022-08-03T01:06:59;11.93;;;3.60;;
26060;SDS011;36331;51.378;0.018;2022-08-03T01:09:32;11.68;;;4.20;;
26060;SDS011;36331;51.378;0.018;2022-08-03T01:12:10;14.98;;;4.35;;
26060;SDS011;36331;51.378;0.018;2022-08-03T01:14:45;9.25;;;4.45;;
26060;SDS011;36331;51.378;0.018;2022-08-03T01:17:18;10.25;;;4.47;;
26060;SDS011;36331;51.378;0.018;2022-08-03T01:19:53;14.23;;;6.10;;
26060;SDS011;36331;51.378;0.018;2022-08-03T01:22:36;12.85;;;5.30;;
26060;SDS011;36331;51.378;0.018;2022-08-03T01:25:09;15.32;;;6.03;;
26060;SDS011;36331;51.378;0.018;2022-08-03T01:27:45;13.07;;;5.22;;
26060;SDS011;36331;51.378;0.018;2022-08-03T01:30:23;17.85;;;8.18;;
26060;SDS011;36331;51.378;0.018;2022-08-03T01:32:54;10.98;;;6.18;;
26060;SDS011;36331;51.378;0.018;2022-08-03T01:35:31;15.40;;;7.13;;
26060;SDS011;36331;51.378;0.018;2022-08-03T01:38:06;15.40;;;6.05;;
26060;SDS011;36331;51.378;0.018;2022-08-03T01:40:44;10.98;;;6.55;;
26060;SDS011;36331;51.378;0.018;2022-08-03T01:43:18;17.27;;;6.43;;
26060;SDS011;36331;51.378;0.018;2022-08-03T01:46:14;11.63;;;6.43;;
26060;SDS011;36331;51.378;0.018;2022-08-03T01:48:46;13.07;;;8.07;;
26060;SDS011;36331;51.378;0.018;2022-08-03T01:51:16;14.93;;;7.13;;
26060;SDS011;36331;51.378;0.018;2022-08-03T01:53:50;15.63;;;8.15;;
26060;SDS011;36331;51.378;0.018;2022-08-03T01:56:24;14.43;;;7.22;;
26060;SDS011;36331;51.378;0.018;2022-08-03T01:58:54;14.85;;;7.78;;
26060;SDS011;36331;51.378;0.018;2022-08-03T02:01:27;13.23;;;8.07;;
26060;SDS011;36331;51.378;0.018;2022-08-03T02:04:17;17.98;;;6.75;;
26060;SDS011;36331;51.378;0.018;2022-08-03T02:06:47;11.50;;;6.88;;
26060;SDS011;36331;51.378;0.018;2022-08-03T02:09:28;14.48;;;7.05;;
26060;SDS011;36331;51.378;0.018;2022-08-03T02:11:58;11.60;;;6.90;;
26060;SDS011;36331;51.378;0.018;2022-08-03T02:14:28;11.70;;;6.28;;
26060;SDS011;36331;51.378;0.018;2022-08-03T02:17:01;19.23;;;6.82;;
26060;SDS011;36331;51.378;0.018;2022-08-03T02:19:34;15.35;;;7.05;;
26060;SDS011;36331;51.378;0.018;2022-08-03T02:22:03;8.68;;;5.45;;
26060;SDS011;36331;51.378;0.018;2022-08-03T02:24:36;14.95;;;7.18;;
26060;SDS011;36331;51.378;0.018;2022-08-03T02:27:11;10.68;;;5.85;;
26060;SDS011;36331;51.378;0.018;2022-08-03T02:29:43;13.57;;;5.90;;
26060;SDS011;36331;51.378;0.018;2022-08-03T02:32:18;13.77;;;4.93;;
26060;SDS011;36331;51.378;0.018;2022-08-03T02:34:49;9.45;;;5.75;;
26060;SDS011;36331;51.378;0.018;2022-08-03T02:37:19;9.23;;;5.00;;
26060;SDS011;36331;51.378;0.018;2022-08-03T02:39:55;10.60;;;4.22;;
26060;SDS011;36331;51.378;0.018;2022-08-03T02:42:26;10.43;;;4.32;;
26060;SDS011;36331;51.378;0.018;2022-08-03T02:45:04;11.32;;;4.28;;
26060;SDS011;36331;51.378;0.018;2022-08-03T02:47:38;12.57;;;4.45;;
26060;SDS011;36331;51.378;0.018;2022-08-03T02:50:22;10.05;;;3.42;;
26060;SDS011;36331;51.378;0.018;2022-08-03T02:52:53;9.23;;;4.15;;
26060;SDS011;36331;51.378;0.018;2022-08-03T02:55:22;9.10;;;3.28;;
26060;SDS011;36331;51.378;0.018;2022-08-03T02:57:53;10.40;;;4.38;;
26060;SDS011;36331;51.378;0.018;2022-08-03T03:00:27;6.93;;;2.70;;
26060;SDS011;36331;51.378;0.018;2022-08-03T03:02:59;8.32;;;2.75;;
26060;SDS011;36331;51.378;0.018;2022-08-03T03:05:29;12.68;;;2.63;;
26060;SDS011;36331;51.378;0.018;2022-08-03T03:08:19;9.13;;;3.00;;
26060;SDS011;36331;51.378;0.018;2022-08-03T03:10:55;7.30;;;2.97;;
26060;SDS011;36331;51.378;0.018;2022-08-03T03:13:29;12.48;;;3.30;;
26060;SDS011;36331;51.378;0.018;2022-08-03T03:16:01;11.52;;;3.63;;
26060;SDS011;36331;51.378;0.018;2022-08-03T03:18:35;8.02;;;3.13;;
26060;SDS011;36331;51.378;0.018;2022-08-03T03:21:07;6.57;;;2.92;;
26060;SDS011;36331;51.378;0.018;2022-08-03T03:23:38;9.88;;;3.42;;
26060;SDS011;36331;51.378;0.018;2022-08-03T03:26:12;9.85;;;3.80;;
26060;SDS011;36331;51.378;0.018;2022-08-03T03:28:43;11.30;;;3.33;;
26060;SDS011;36331;51.378;0.018;2022-08-03T03:31:13;12.05;;;3.47;;
26060;SDS011;36331;51.378;0.018;2022-08-03T03:33:46;4.50;;;3.13;;
26060;SDS011;36331;51.378;0.018;2022-08-03T03:36:15;13.30;;;3.72;;
26060;SDS011;36331;51.378;0.018;2022-08-03T03:38:50;7.30;;;3.38;;
26060;SDS011;36331;51.378;0.018;2022-08-03T03:41:23;11.40;;;3.67;;
26060;SDS011;36331;51.378;0.018;2022-08-03T03:43:52;15.90;;;3.78;;
26060;SDS011;36331;51.378;0.018;2022-08-03T03:46:22;12.73;;;5.32;;
26060;SDS011;36331;51.378;0.018;2022-08-03T03:48:53;9.05;;;3.40;;
26060;SDS011;36331;51.378;0.018;2022-08-03T03:51:25;11.02;;;3.67;;
26060;SDS011;36331;51.378;0.018;2022-08-03T03:53:57;9.93;;;3.67;;
26060;SDS011;36331;51.378;0.018;2022-08-03T03:56:27;8.32;;;4.18;;
26060;SDS011;36331;51.378;0.018;2022-08-03T03:58:56;11.00;;;4.30;;
26060;SDS011;36331;51.378;0.018;2022-08-03T04:01:28;12.13;;;4.25;;
26060;SDS011;36331;51.378;0.018;2022-08-03T04:03:58;9.93;;;4.07;;
26060;SDS011;36331;51.378;0.018;2022-08-03T04:06:48;7.32;;;3.80;;
26060;SDS011;36331;51.378;0.018;2022-08-03T04:09:35;8.23;;;4.10;;
26060;SDS011;36331;51.378;0.018;2022-08-03T04:12:25;12.40;;;5.80;;
26060;SDS011;36331;51.378;0.018;2022-08-03T04:14:54;6.38;;;3.72;;
26060;SDS011;36331;51.378;0.018;2022-08-03T04:17:27;8.10;;;4.30;;
26060;SDS011;36331;51.378;0.018;2022-08-03T04:22:36;8.15;;;4.75;;
26060;SDS011;36331;51.378;0.018;2022-08-03T04:25:11;10.93;;;5.13;;
26060;SDS011;36331;51.378;0.018;2022-08-03T04:27:49;16.08;;;5.45;;
26060;SDS011;36331;51.378;0.018;2022-08-03T04:30:44;7.30;;;5.10;;
26060;SDS011;36331;51.378;0.018;2022-08-03T04:33:15;14.00;;;5.75;;
26060;SDS011;36331;51.378;0.018;2022-08-03T04:35:48;9.65;;;6.22;;
26060;SDS011;36331;51.378;0.018;2022-08-03T04:38:29;8.82;;;4.35;;
26060;SDS011;36331;51.378;0.018;2022-08-03T04:40:59;8.85;;;4.40;;
26060;SDS011;36331;51.378;0.018;2022-08-03T04:43:39;7.78;;;4.55;;
26060;SDS011;36331;51.378;0.018;2022-08-03T04:46:16;9.95;;;5.20;;
26060;SDS011;36331;51.378;0.018;2022-08-03T04:48:48;10.02;;;5.07;;
26060;SDS011;36331;51.378;0.018;2022-08-03T04:51:20;11.10;;;5.47;;
26060;SDS011;36331;51.378;0.018;2022-08-03T04:53:51;11.82;;;5.40;;
26060;SDS011;36331;51.378;0.018;2022-08-03T04:56:26;8.38;;;4.93;;
26060;SDS011;36331;51.378;0.018;2022-08-03T04:58:55;10.20;;;6.07;;
26060;SDS011;36331;51.378;0.018;2022-08-03T05:01:25;7.47;;;4.93;;
26060;SDS011;36331;51.378;0.018;2022-08-03T05:03:55;11.75;;;6.70;;
26060;SDS011;36331;51.378;0.018;2022-08-03T05:06:26;8.63;;;6.60;;
26060;SDS011;36331;51.378;0.018;2022-08-03T05:08:58;10.43;;;5.88;;
26060;SDS011;36331;51.378;0.018;2022-08-03T05:11:32;12.73;;;5.68;;
26060;SDS011;36331;51.378;0.018;2022-08-03T05:14:08;9.95;;;6.43;;
26060;SDS011;36331;51.378;0.018;2022-08-03T05:16:38;8.90;;;5.03;;
26060;SDS011;36331;51.378;0.018;2022-08-03T05:19:07;9.40;;;5.13;;
26060;SDS011;36331;51.378;0.018;2022-08-03T05:21:37;9.85;;;5.47;;
26060;SDS011;36331;51.378;0.018;2022-08-03T05:24:20;9.52;;;5.03;;
26060;SDS011;36331;51.378;0.018;2022-08-03T05:26:49;10.40;;;4.30;;
26060;SDS011;36331;51.378;0.018;2022-08-03T05:29:18;9.18;;;4.80;;
26060;SDS011;36331;51.378;0.018;2022-08-03T05:31:48;11.73;;;4.88;;
26060;SDS011;36331;51.378;0.018;2022-08-03T05:34:17;6.13;;;4.47;;
26060;SDS011;36331;51.378;0.018;2022-08-03T05:36:46;9.65;;;4.63;;
26060;SDS011;36331;51.378;0.018;2022-08-03T05:39:16;12.77;;;4.30;;
26060;SDS011;36331;51.378;0.018;2022-08-03T05:41:46;12.95;;;4.72;;
26060;SDS011;36331;51.378;0.018;2022-08-03T05:44:16;5.53;;;4.25;;
26060;SDS011;36331;51.378;0.018;2022-08-03T05:46:45;9.70;;;4.65;;
26060;SDS011;36331;51.378;0.018;2022-08-03T05:49:14;8.48;;;5.03;;
26060;SDS011;36331;51.378;0.018;2022-08-03T05:51:50;7.82;;;4.82;;
26060;SDS011;36331;51.378;0.018;2022-08-03T05:54:35;11.45;;;5.00;;
26060;SDS011;36331;51.378;0.018;2022-08-03T05:57:24;10.15;;;5.40;;
26060;SDS011;36331;51.378;0.018;2022-08-03T05:59:54;10.68;;;5.25;;
26060;SDS011;36331;51.378;0.018;2022-08-03T06:02:24;9.52;;;5.40;;
26060;SDS011;36331;51.378;0.018;2022-08-03T06:04:54;9.45;;;4.35;;
26060;SDS011;36331;51.378;0.018;2022-08-03T06:07:23;9.50;;;4.90;;
26060;SDS011;36331;51.378;0.018;2022-08-03T06:09:54;7.57;;;4.65;;
26060;SDS011;36331;51.378;0.018;2022-08-03T06:12:45;10.48;;;4.82;;
26060;SDS011;36331;51.378;0.018;2022-08-03T06:15:15;10.05;;;4.63;;
26060;SDS011;36331;51.378;0.018;2022-08-03T06:17:46;11.82;;;4.40;;
26060;SDS011;36331;51.378;0.018;2022-08-03T06:20:16;8.98;;;4.07;;
26060;SDS011;36331;51.378;0.018;2022-08-03T06:22:47;6.63;;;3.95;;
26060;SDS011;36331;51.378;0.018;2022-08-03T06:25:27;7.10;;;3.53;;
26060;SDS011;36331;51.378;0.018;2022-08-03T06:27:58;7.70;;;3.33;;
26060;SDS011;36331;51.378;0.018;2022-08-03T06:30:27;6.68;;;2.95;;
26060;SDS011;36331;51.378;0.018;2022-08-03T06:32:56;9.05;;;3.10;;
26060;SDS011;36331;51.378;0.018;2022-08-03T06:35:26;5.45;;;3.13;;
26060;SDS011;36331;51.378;0.018;2022-08-03T06:37:56;6.72;;;2.88;;
26060;SDS011;36331;51.378;0.018;2022-08-03T06:40:26;7.18;;;3.40;;
26060;SDS011;36331;51.378;0.018;2022-08-03T06:43:01;6.97;;;2.92;;
26060;SDS011;36331;51.378;0.018;2022-08-03T06:45:35;7.95;;;2.67;;
26060;SDS011;36331;51.378;0.018;2022-08-03T06:48:08;6.70;;;2.40;;
26060;SDS011;36331;51.378;0.018;2022-08-03T06:50:44;4.82;;;2.38;;
26060;SDS011;36331;51.378;0.018;2022-08-03T06:53:14;7.10;;;2.72;;
26060;SDS011;36331;51.378;0.018;2022-08-03T06:55:47;6.32;;;3.53;;
26060;SDS011;36331;51.378;0.018;2022-08-03T06:58:22;3.22;;;1.90;;
26060;SDS011;36331;51.378;0.018;2022-08-03T07:00:51;3.03;;;1.90;;
26060;SDS011;36331;51.378;0.018;2022-08-03T07:03:21;4.47;;;1.88;;
26060;SDS011;36331;51.378;0.018;2022-08-03T07:05:51;3.40;;;1.90;;
26060;SDS011;36331;51.378;0.018;2022-08-03T07:08:24;6.05;;;2.10;;
26060;SDS011;36331;51.378;0.018;2022-08-03T07:11:00;4.13;;;2.17;;
26060;SDS011;36331;51.378;0.018;2022-08-03T07:13:31;2.78;;;1.83;;
26060;SDS011;36331;51.378;0.018;2022-08-03T07:16:03;5.60;;;1.90;;
26060;SDS011;36331;51.378;0.018;2022-08-03T07:18:34;2.70;;;1.67;;
26060;SDS011;36331;51.378;0.018;2022-08-03T07:21:07;3.15;;;1.77;;
26060;SDS011;36331;51.378;0.018;2022-08-03T07:23:38;4.65;;;1.92;;
26060;SDS011;36331;51.378;0.018;2022-08-03T07:26:08;4.18;;;1.63;;
26060;SDS011;36331;51.378;0.018;2022-08-03T07:28:42;6.40;;;1.60;;
26060;SDS011;36331;51.378;0.018;2022-08-03T07:31:13;3.40;;;2.03;;
26060;SDS011;36331;51.378;0.018;2022-08-03T07:33:45;4.40;;;2.67;;
26060;SDS011;36331;51.378;0.018;2022-08-03T07:36:15;3.47;;;1.70;;
26060;SDS011;36331;51.378;0.018;2022-08-03T07:38:46;1.43;;;1.20;;
26060;SDS011;36331;51.378;0.018;2022-08-03T07:41:16;2.45;;;1.67;;
26060;SDS011;36331;51.378;0.018;2022-08-03T07:43:47;1.88;;;1.50;;
26060;SDS011;36331;51.378;0.018;2022-08-03T07:46:17;4.43;;;1.17;;
26060;SDS011;36331;51.378;0.018;2022-08-03T07:48:48;1.65;;;1.30;;
26060;SDS011;36331;51.378;0.018;2022-08-03T07:51:18;1.60;;;1.00;;
26060;SDS011;36331;51.378;0.018;2022-08-03T07:53:49;2.53;;;1.42;;
26060;SDS011;36331;51.378;0.018;2022-08-03T07:56:19;2.25;;;1.10;;
26060;SDS011;36331;51.378;0.018;2022-08-03T07:58:50;1.00;;;0.70;;
26060;SDS011;36331;51.378;0.018;2022-08-03T08:01:20;3.13;;;0.90;;
26060;SDS011;36331;51.378;0.018;2022-08-03T08:03:55;5.32;;;1.10;;
26060;SDS011;36331;51.378;0.018;2022-08-03T08:06:24;1.30;;;0.95;;
26060;SDS011;36331;51.378;0.018;2022-08-03T08:08:54;1.27;;;0.85;;
26060;SDS011;36331;51.378;0.018;2022-08-03T08:11:27;2.85;;;1.30;;
26060;SDS011;36331;51.378;0.018;2022-08-03T08:13:58;0.90;;;0.60;;
26060;SDS011;36331;51.378;0.018;2022-08-03T08:16:29;2.08;;;0.70;;
26060;SDS011;36331;51.378;0.018;2022-08-03T08:19:00;1.05;;;0.75;;
26060;SDS011;36331;51.378;0.018;2022-08-03T08:21:29;1.17;;;0.60;;
26060;SDS011;36331;51.378;0.018;2022-08-03T08:24:19;1.15;;;0.70;;
26060;SDS011;36331;51.378;0.018;2022-08-03T08:26:49;2.17;;;1.00;;
26060;SDS011;36331;51.378;0.018;2022-08-03T08:29:23;2.22;;;0.50;;
26060;SDS011;36331;51.378;0.018;2022-08-03T08:31:52;0.68;;;0.40;;
26060;SDS011;36331;51.378;0.018;2022-08-03T08:34:21;0.98;;;0.82;;
26060;SDS011;36331;51.378;0.018;2022-08-03T08:36:51;0.63;;;0.40;;
26060;SDS011;36331;51.378;0.018;2022-08-03T08:39:22;1.13;;;0.57;;
26060;SDS011;36331;51.378;0.018;2022-08-03T08:41:51;2.47;;;0.50;;
26060;SDS011;36331;51.378;0.018;2022-08-03T08:44:20;0.68;;;0.43;;
26060;SDS011;36331;51.378;0.018;2022-08-03T08:46:51;1.23;;;0.60;;
26060;SDS011;36331;51.378;0.018;2022-08-03T08:49:22;1.55;;;0.60;;
26060;SDS011;36331;51.378;0.018;2022-08-03T08:51:51;0.50;;;0.50;;
26060;SDS011;36331;51.378;0.018;2022-08-03T08:54:27;2.58;;;0.60;;
26060;SDS011;36331;51.378;0.018;2022-08-03T08:57:00;1.17;;;1.00;;
26060;SDS011;36331;51.378;0.018;2022-08-03T08:59:50;1.02;;;0.60;;
26060;SDS011;36331;51.378;0.018;2022-08-03T09:02:24;2.17;;;0.40;;
26060;SDS011;36331;51.378;0.018;2022-08-03T09:04:54;0.90;;;0.50;;
26060;SDS011;36331;51.378;0.018;2022-08-03T09:07:24;0.60;;;0.40;;
26060;SDS011;36331;51.378;0.018;2022-08-03T09:09:54;1.42;;;0.57;;
26060;SDS011;36331;51.378;0.018;2022-08-03T09:12:40;2.92;;;1.15;;
26060;SDS011;36331;51.378;0.018;2022-08-03T09:15:20;1.90;;;0.50;;
26060;SDS011;36331;51.378;0.018;2022-08-03T09:17:53;2.80;;;0.75;;
26060;SDS011;36331;51.378;0.018;2022-08-03T09:20:23;2.07;;;0.70;;
26060;SDS011;36331;51.378;0.018;2022-08-03T09:22:57;2.90;;;0.80;;
26060;SDS011;36331;51.378;0.018;2022-08-03T09:25:28;1.70;;;0.50;;
26060;SDS011;36331;51.378;0.018;2022-08-03T09:28:05;1.38;;;0.50;;
26060;SDS011;36331;51.378;0.018;2022-08-03T09:30:34;0.65;;;0.50;;
26060;SDS011;36331;51.378;0.018;2022-08-03T09:33:06;1.05;;;0.50;;
26060;SDS011;36331;51.378;0.018;2022-08-03T09:35:39;2.70;;;0.57;;
26060;SDS011;36331;51.378;0.018;2022-08-03T09:38:24;1.52;;;0.45;;
26060;SDS011;36331;51.378;0.018;2022-08-03T09:40:53;1.83;;;0.85;;
26060;SDS011;36331;51.378;0.018;2022-08-03T09:43:27;2.80;;;0.55;;
26060;SDS011;36331;51.378;0.018;2022-08-03T09:46:03;1.55;;;0.40;;
26060;SDS011;36331;51.378;0.018;2022-08-03T09:48:35;1.13;;;0.80;;
26060;SDS011;36331;51.378;0.018;2022-08-03T09:51:06;3.30;;;0.80;;
26060;SDS011;36331;51.378;0.018;2022-08-03T09:53:56;2.50;;;0.63;;
26060;SDS011;36331;51.378;0.018;2022-08-03T09:56:41;1.75;;;0.82;;
26060;SDS011;36331;51.378;0.018;2022-08-03T09:59:12;1.73;;;0.50;;
26060;SDS011;36331;51.378;0.018;2022-08-03T10:01:42;0.75;;;0.65;;
26060;SDS011;36331;51.378;0.018;2022-08-03T10:04:14;1.90;;;0.77;;
26060;SDS011;36331;51.378;0.018;2022-08-03T10:07:00;2.63;;;0.77;;
26060;SDS011;36331;51.378;0.018;2022-08-03T10:09:30;3.30;;;0.75;;
26060;SDS011;36331;51.378;0.018;2022-08-03T10:12:09;2.33;;;0.70;;
26060;SDS011;36331;51.378;0.018;2022-08-03T10:14:40;1.13;;;0.60;;
26060;SDS011;36331;51.378;0.018;2022-08-03T10:17:11;3.38;;;0.90;;
26060;SDS011;36331;51.378;0.018;2022-08-03T10:19:43;2.40;;;0.95;;
26060;SDS011;36331;51.378;0.018;2022-08-03T10:22:13;3.05;;;0.98;;
26060;SDS011;36331;51.378;0.018;2022-08-03T10:24:46;3.38;;;0.60;;
26060;SDS011;36331;51.378;0.018;2022-08-03T10:27:15;1.52;;;0.65;;
26060;SDS011;36331;51.378;0.018;2022-08-03T10:29:46;3.83;;;0.88;;
26060;SDS011;36331;51.378;0.018;2022-08-03T10:32:18;1.98;;;0.70;;
26060;SDS011;36331;51.378;0.018;2022-08-03T10:34:50;2.95;;;0.73;;
26060;SDS011;36331;51.378;0.018;2022-08-03T10:37:26;1.83;;;0.95;;
26060;SDS011;36331;51.378;0.018;2022-08-03T10:39:59;1.25;;;0.80;;
26060;SDS011;36331;51.378;0.018;2022-08-03T10:42:28;2.97;;;0.70;;
26060;SDS011;36331;51.378;0.018;2022-08-03T10:45:03;2.30;;;0.70;;
26060;SDS011;36331;51.378;0.018;2022-08-03T10:47:33;7.82;;;1.45;;
26060;SDS011;36331;51.378;0.018;2022-08-03T10:50:06;3.67;;;1.25;;
26060;SDS011;36331;51.378;0.018;2022-08-03T10:52:51;2.50;;;1.02;;
26060;SDS011;36331;51.378;0.018;2022-08-03T10:55:31;4.38;;;1.10;;
26060;SDS011;36331;51.378;0.018;2022-08-03T11:04:26;2.47;;;1.67;;
26060;SDS011;36331;51.378;0.018;2022-08-03T11:09:54;5.60;;;0.90;;
26060;SDS011;36331;51.378;0.018;2022-08-03T11:12:24;2.67;;;0.75;;
26060;SDS011;36331;51.378;0.018;2022-08-03T11:14:59;6.35;;;1.10;;
26060;SDS011;36331;51.378;0.018;2022-08-03T11:17:29;4.22;;;0.82;;
26060;SDS011;36331;51.378;0.018;2022-08-03T11:19:58;6.10;;;1.58;;
26060;SDS011;36331;51.378;0.018;2022-08-03T11:22:46;3.42;;;0.90;;
26060;SDS011;36331;51.378;0.018;2022-08-03T11:25:18;3.65;;;0.95;;
26060;SDS011;36331;51.378;0.018;2022-08-03T11:30:56;4.38;;;1.20;;
26060;SDS011;36331;51.378;0.018;2022-08-03T11:34:08;4.67;;;1.03;;
26060;SDS011;36331;51.378;0.018;2022-08-03T11:39:23;5.13;;;1.00;;
26060;SDS011;36331;51.378;0.018;2022-08-03T11:44:54;1.77;;;0.90;;
26060;SDS011;36331;51.378;0.018;2022-08-03T11:47:25;3.53;;;0.88;;
26060;SDS011;36331;51.378;0.018;2022-08-03T11:49:56;6.45;;;1.00;;
26060;SDS011;36331;51.378;0.018;2022-08-03T11:52:33;3.75;;;1.08;;
26060;SDS011;36331;51.378;0.018;2022-08-03T11:55:07;4.13;;;0.90;;
26060;SDS011;36331;51.378;0.018;2022-08-03T11:57:37;2.97;;;0.90;;
26060;SDS011;36331;51.378;0.018;2022-08-03T12:00:31;3.95;;;1.00;;
26060;SDS011;36331;51.378;0.018;2022-08-03T12:03:03;3.63;;;0.80;;
26060;SDS011;36331;51.378;0.018;2022-08-03T12:05:34;6.43;;;1.08;;
26060;SDS011;36331;51.378;0.018;2022-08-03T12:08:05;4.40;;;0.88;;
26060;SDS011;36331;51.378;0.018;2022-08-03T12:10:35;3.95;;;1.30;;
26060;SDS011;36331;51.378;0.018;2022-08-03T12:13:05;3.83;;;1.15;;
26060;SDS011;36331;51.378;0.018;2022-08-03T12:15:56;4.32;;;0.98;;
26060;SDS011;36331;51.378;0.018;2022-08-03T12:18:27;7.20;;;2.55;;
26060;SDS011;36331;51.378;0.018;2022-08-03T12:21:03;6.10;;;1.48;;
26060;SDS011;36331;51.378;0.018;2022-08-03T12:23:33;4.50;;;0.90;;
26060;SDS011;36331;51.378;0.018;2022-08-03T12:26:05;3.47;;;1.52;;
26060;SDS011;36331;51.378;0.018;2022-08-03T12:28:34;3.17;;;0.70;;
26060;SDS011;36331;51.378;0.018;2022-08-03T12:31:10;3.97;;;0.50;;
26060;SDS011;36331;51.378;0.018;2022-08-03T12:33:53;3.83;;;0.83;;
26060;SDS011;36331;51.378;0.018;2022-08-03T12:36:27;3.35;;;0.98;;
26060;SDS011;36331;51.378;0.018;2022-08-03T12:39:03;3.35;;;0.50;;
26060;SDS011;36331;51.378;0.018;2022-08-03T12:44:05;2.13;;;0.68;;
26060;SDS011;36331;51.378;0.018;2022-08-03T12:46:37;2.10;;;0.65;;
26060;SDS011;36331;51.378;0.018;2022-08-03T12:49:17;2.90;;;0.60;;
26060;SDS011;36331;51.378;0.018;2022-08-03T12:51:57;4.22;;;0.80;;
26060;SDS011;36331;51.378;0.018;2022-08-03T12:54:33;3.28;;;0.63;;
26060;SDS011;36331;51.378;0.018;2022-08-03T12:57:15;2.40;;;0.73;;
26060;SDS011;36331;51.378;0.018;2022-08-03T12:59:50;3.50;;;0.60;;
26060;SDS011;36331;51.378;0.018;2022-08-03T13:02:27;2.63;;;0.60;;
26060;SDS011;36331;51.378;0.018;2022-08-03T13:04:58;3.85;;;1.23;;
26060;SDS011;36331;51.378;0.018;2022-08-03T13:07:40;5.35;;;1.25;;
26060;SDS011;36331;51.378;0.018;2022-08-03T13:10:12;5.88;;;0.80;;
26060;SDS011;36331;51.378;0.018;2022-08-03T13:13:00;5.38;;;0.50;;
26060;SDS011;36331;51.378;0.018;2022-08-03T13:15:31;4.88;;;1.05;;
26060;SDS011;36331;51.378;0.018;2022-08-03T13:18:15;4.40;;;0.70;;
26060;SDS011;36331;51.378;0.018;2022-08-03T13:20:45;2.95;;;0.55;;
26060;SDS011;36331;51.378;0.018;2022-08-03T13:23:16;3.17;;;0.73;;
26060;SDS011;36331;51.378;0.018;2022-08-03T13:25:51;3.92;;;1.52;;
26060;SDS011;36331;51.378;0.018;2022-08-03T13:28:24;2.63;;;0.52;;
26060;SDS011;36331;51.378;0.018;2022-08-03T13:30:54;2.45;;;0.50;;
26060;SDS011;36331;51.378;0.018;2022-08-03T13:33:25;3.75;;;0.75;;
26060;SDS011;36331;51.378;0.018;2022-08-03T13:35:55;3.60;;;0.60;;
26060;SDS011;36331;51.378;0.018;2022-08-03T13:38:25;2.42;;;0.50;;
26060;SDS011;36331;51.378;0.018;2022-08-03T13:40:56;3.92;;;0.77;;
26060;SDS011;36331;51.378;0.018;2022-08-03T13:43:26;6.07;;;0.77;;
26060;SDS011;36331;51.378;0.018;2022-08-03T13:45:55;4.82;;;0.80;;
26060;SDS011;36331;51.378;0.018;2022-08-03T13:48:26;7.80;;;1.00;;
26060;SDS011;36331;51.378;0.018;2022-08-03T13:51:03;3.72;;;0.55;;
26060;SDS011;36331;51.378;0.018;2022-08-03T13:53:49;3.05;;;0.80;;
26060;SDS011;36331;51.378;0.018;2022-08-03T13:56:21;2.88;;;0.80;;
26060;SDS011;36331;51.378;0.018;2022-08-03T13:58:52;3.88;;;0.52;;
26060;SDS011;36331;51.378;0.018;2022-08-03T14:01:22;5.32;;;0.60;;
26060;SDS011;36331;51.378;0.018;2022-08-03T14:04:16;3.65;;;0.70;;
26060;SDS011;36331;51.378;0.018;2022-08-03T14:06:48;4.13;;;0.63;;
26060;SDS011;36331;51.378;0.018;2022-08-03T14:09:17;4.00;;;0.75;;
26060;SDS011;36331;51.378;0.018;2022-08-03T14:11:47;3.30;;;0.60;;
26060;SDS011;36331;51.378;0.018;2022-08-03T14:14:35;5.57;;;0.85;;
26060;SDS011;36331;51.378;0.018;2022-08-03T14:17:04;5.57;;;0.73;;
26060;SDS011;36331;51.378;0.018;2022-08-03T14:19:35;4.18;;;0.75;;
26060;SDS011;36331;51.378;0.018;2022-08-03T14:22:20;2.92;;;0.60;;
26060;SDS011;36331;51.378;0.018;2022-08-03T14:24:50;6.53;;;1.83;;
26060;SDS011;36331;51.378;0.018;2022-08-03T14:27:19;3.97;;;0.70;;
26060;SDS011;36331;51.378;0.018;2022-08-03T14:29:49;2.70;;;0.80;;
26060;SDS011;36331;51.378;0.018;2022-08-03T14:32:18;3.38;;;0.80;;
26060;SDS011;36331;51.378;0.018;2022-08-03T14:34:49;4.88;;;1.10;;
26060;SDS011;36331;51.378;0.018;2022-08-03T14:37:18;3.17;;;0.93;;
26060;SDS011;36331;51.378;0.018;2022-08-03T14:39:48;5.32;;;0.73;;
26060;SDS011;36331;51.378;0.018;2022-08-03T14:42:27;3.33;;;0.55;;
26060;SDS011;36331;51.378;0.018;2022-08-03T14:44:56;4.20;;;0.73;;
26060;SDS011;36331;51.378;0.018;2022-08-03T14:47:33;4.30;;;0.90;;
26060;SDS011;36331;51.378;0.018;2022-08-03T14:50:24;1.88;;;0.45;;
26060;SDS011;36331;51.378;0.018;2022-08-03T14:53:07;3.13;;;0.80;;
26060;SDS011;36331;51.378;0.018;2022-08-03T14:55:37;4.43;;;0.95;;
26060;SDS011;36331;51.378;0.018;2022-08-03T14:58:17;6.93;;;1.95;;
26060;SDS011;36331;51.378;0.018;2022-08-03T15:00:48;3.80;;;0.70;;
26060;SDS011;36331;51.378;0.018;2022-08-03T15:03:19;5.03;;;1.02;;
26060;SDS011;36331;51.378;0.018;2022-08-03T15:05:52;5.75;;;0.70;;
26060;SDS011;36331;51.378;0.018;2022-08-03T15:08:22;5.43;;;0.60;;
26060;SDS011;36331;51.378;0.018;2022-08-03T15:10:52;2.88;;;1.17;;
26060;SDS011;36331;51.378;0.018;2022-08-03T15:13:21;3.47;;;0.80;;
26060;SDS011;36331;51.378;0.018;2022-08-03T15:15:51;3.55;;;1.00;;
26060;SDS011;36331;51.378;0.018;2022-08-03T15:18:20;6.18;;;0.95;;
26060;SDS011;36331;51.378;0.018;2022-08-03T15:20:49;1.70;;;0.50;;
26060;SDS011;36331;51.378;0.018;2022-08-03T15:23:20;2.35;;;0.70;;
26060;SDS011;36331;51.378;0.018;2022-08-03T15:25:49;4.90;;;0.70;;
26060;SDS011;36331;51.378;0.018;2022-08-03T15:28:39;5.43;;;1.02;;
26060;SDS011;36331;51.378;0.018;2022-08-03T15:31:08;4.03;;;0.75;;
26060;SDS011;36331;51.378;0.018;2022-08-03T15:33:44;2.25;;;0.52;;
26060;SDS011;36331;51.378;0.018;2022-08-03T15:36:14;2.63;;;1.10;;
26060;SDS011;36331;51.378;0.018;2022-08-03T15:38:46;5.35;;;0.70;;
26060;SDS011;36331;51.378;0.018;2022-08-03T15:41:15;3.17;;;0.75;;
26060;SDS011;36331;51.378;0.018;2022-08-03T15:43:45;4.38;;;0.73;;
26060;SDS011;36331;51.378;0.018;2022-08-03T15:46:14;4.55;;;0.80;;